Ever Ursula — 3FCB9 — position and weather

sailwx.info

Track history (hours):
 
Tides and Currents Weather Stations Pressure Air Temp Water Temp Dewpoint Dewpoint Depression Visibility Wind Speed Wind Dir Waves Ship Positions

Ever Ursula

Last reported at 2014-Nov-26 10:15 UTC. Time now 2014-Nov-28 09:39 UTC.
Position N 35°54' E 120°46'.

Type: Cargo ship. MMSI: 357737000.

Date/timePositionNaut miles runAvg speedWind from/ knotsBaromVisibWave heightAir tempDewpointWater temp
2014-Nov-26 10:15N 35°54' E 120°46'1216.8
2014-Nov-26 09:33N 35°58' E 120°32'1212.4
2014-Nov-26 08:33N 36°02' E 120°17'4 4.3
2014-Nov-26 07:33N 36°00' E 120°12'0 0.0
2014-Nov-26 06:33N 36°00' E 120°12'0 0.0
2014-Nov-26 05:32N 36°00' E 120°12'0 0.0
2014-Nov-26 04:23N 36°00' E 120°12'0 0.0
2014-Nov-26 03:08N 36°00' E 120°12'0 0.1
2014-Nov-26 02:32N 36°00' E 120°12'0 0.1
2014-Nov-26 01:33N 36°00' E 120°12'0 0.0
2014-Nov-26 00:34N 36°00' E 120°12'0 0.0
2014-Nov-25 23:33N 36°00' E 120°12'0 0.0
2014-Nov-25 22:33N 36°00' E 120°12'0 0.0
2014-Nov-25 21:33N 36°00' E 120°12'0 0.0
2014-Nov-25 20:33N 36°00' E 120°12'0 0.0
2014-Nov-25 19:33N 36°00' E 120°12'0 0.1
2014-Nov-25 18:33N 36°00' E 120°12'0 0.0
2014-Nov-25 17:33N 36°00' E 120°12'0 0.0
2014-Nov-25 16:33N 36°00' E 120°12'0 0.3
2014-Nov-25 15:33N 36°00' E 120°13'9 9.2
2014-Nov-25 14:33N 36°01' E 120°24'1414.0
2014-Nov-25 13:33N 35°58' E 120°41'10517.5
2014-Nov-25 07:32N 36°35' E 122°43'3615.8
2014-Nov-25 05:17N 37°05' E 123°08'1519.4
2014-Nov-25 04:32N 37°19' E 123°09'113 5.4
2014-Nov-24 07:24N 38°57' E 121°57'5 6.0
2014-Nov-24 06:33N 38°52' E 121°56'4 4.3
2014-Nov-24 05:34N 38°48' E 121°56'2 1.5
2014-Nov-24 04:33N 38°46' E 121°56'2 2.5
2014-Nov-24 03:33N 38°44' E 121°55'1612.8
2014-Nov-24 02:20N 38°28' E 121°50'1113.8
2014-Nov-24 01:34N 38°28' E 121°37'1914.3
2014-Nov-24 00:16N 38°29' E 121°13'13613.9
2014-Nov-23 14:26N 38°49' E 118°20'1213.4
2014-Nov-23 13:33N 38°54' E 118°07'1212.2
2014-Nov-23 12:33N 38°58' E 117°52'4 3.5
2014-Nov-23 11:28N 38°59' E 117°47'0 0.0
2014-Nov-23 10:16N 38°59' E 117°47'0 0.1
2014-Nov-23 09:22N 38°59' E 117°47'0 0.0
2014-Nov-23 08:28N 38°59' E 117°47'0 0.0
2014-Nov-23 07:16N 38°59' E 117°47'0 0.0
2014-Nov-23 05:31N 38°59' E 117°47'0 0.0
2014-Nov-23 04:31N 38°59' E 117°47'0 0.0
2014-Nov-23 03:25N 38°59' E 117°47'0 0.0
2014-Nov-23 02:31N 38°59' E 117°47'0 0.0
2014-Nov-23 01:31N 38°59' E 117°47'0 0.0
2014-Nov-23 00:31N 38°59' E 117°47'0 0.0
2014-Nov-22 23:25N 38°59' E 117°47'0 0.0
2014-Nov-22 22:31N 38°59' E 117°47'0 0.0
2014-Nov-22 21:25N 38°59' E 117°47'0 0.0
2014-Nov-22 20:31N 38°59' E 117°47'0 0.0
2014-Nov-22 19:19N 38°59' E 117°47'0 0.0
2014-Nov-22 18:31N 38°59' E 117°47'0 0.0
2014-Nov-22 17:25N 38°59' E 117°47'0 0.0
2014-Nov-22 16:31N 38°59' E 117°47'0 0.1
2014-Nov-22 15:33N 38°59' E 117°47'9 9.3
2014-Nov-22 14:33N 38°57' E 117°59'7 6.6
2014-Nov-22 13:33N 38°56' E 118°07'4 3.9
2014-Nov-22 12:33N 38°53' E 118°11'141 9.3
2014-Nov-21 21:22N 38°30' E 121°09'1213.5
2014-Nov-21 20:30N 38°23' E 121°22'2713.6
2014-Nov-21 18:29N 38°10' E 121°53'3913.4
2014-Nov-21 15:32N 37°50' E 122°35'1212.6
2014-Nov-21 14:33N 37°41' E 122°47'1413.0
2014-Nov-21 13:29N 37°31' E 122°58'  
2014-Nov-18 11:34N 22°19' E 114°06'2 0.4
2014-Nov-18 07:33N 22°20' E 114°08'0 0.0
2014-Nov-18 06:19N 22°20' E 114°08'0 0.0
2014-Nov-18 04:27N 22°20' E 114°08'0 0.0
2014-Nov-18 02:26N 22°20' E 114°08'0 0.0
2014-Nov-18 01:33N 22°20' E 114°08'0 0.0
2014-Nov-18 00:32N 22°20' E 114°08'0 0.0
2014-Nov-17 23:29N 22°20' E 114°08'0 0.0
2014-Nov-17 22:33N 22°20' E 114°08'0 0.0
2014-Nov-17 21:33N 22°20' E 114°08'0 0.0
2014-Nov-17 20:30N 22°20' E 114°08'0 0.0
2014-Nov-17 19:32N 22°20' E 114°08'0 0.0
2014-Nov-17 18:33N 22°20' E 114°08'0 0.0
2014-Nov-17 16:33N 22°20' E 114°08'0 0.0
2014-Nov-17 15:33N 22°20' E 114°08'0 0.0
2014-Nov-17 14:33N 22°20' E 114°08'0 0.0
2014-Nov-17 13:33N 22°20' E 114°08'0 0.0
2014-Nov-17 12:30N 22°20' E 114°08'0 0.0
2014-Nov-17 11:32N 22°20' E 114°08'0 0.0
2014-Nov-17 10:23N 22°20' E 114°08'0 0.4
2014-Nov-17 09:26N 22°19' E 114°07'9 7.2
2014-Nov-17 08:06N 22°11' E 114°12'15413.2
2014-Nov-16 20:30N 22°51' E 116°53'2014.2
2014-Nov-16 19:05N 23°02' E 117°11'  
Track history (hours):
 
Tides and Currents Weather Stations Pressure Air Temp Water Temp Dewpoint Dewpoint Depression Visibility Wind Speed Wind Dir Waves Ship Positions

Ever Ursula

Last reported at 2014-Nov-26 10:15 UTC. Time now 2014-Nov-28 09:39 UTC.
Position N 35°54' E 120°46'.

Type: Cargo ship. MMSI: 357737000.

Date/timePositionNaut miles runAvg speedWind from/ knotsBaromVisibWave heightAir tempDewpointWater temp
2014-Nov-26 10:15N 35°54' E 120°46'1216.8
2014-Nov-26 09:33N 35°58' E 120°32'1212.4
2014-Nov-26 08:33N 36°02' E 120°17'4 4.3
2014-Nov-26 07:33N 36°00' E 120°12'0 0.0
2014-Nov-26 06:33N 36°00' E 120°12'0 0.0
2014-Nov-26 05:32N 36°00' E 120°12'0 0.0
2014-Nov-26 04:23N 36°00' E 120°12'0 0.0
2014-Nov-26 03:08N 36°00' E 120°12'0 0.1
2014-Nov-26 02:32N 36°00' E 120°12'0 0.1
2014-Nov-26 01:33N 36°00' E 120°12'0 0.0
2014-Nov-26 00:34N 36°00' E 120°12'0 0.0
2014-Nov-25 23:33N 36°00' E 120°12'0 0.0
2014-Nov-25 22:33N 36°00' E 120°12'0 0.0
2014-Nov-25 21:33N 36°00' E 120°12'0 0.0
2014-Nov-25 20:33N 36°00' E 120°12'0 0.0
2014-Nov-25 19:33N 36°00' E 120°12'0 0.1
2014-Nov-25 18:33N 36°00' E 120°12'0 0.0
2014-Nov-25 17:33N 36°00' E 120°12'0 0.0
2014-Nov-25 16:33N 36°00' E 120°12'0 0.3
2014-Nov-25 15:33N 36°00' E 120°13'9 9.2
2014-Nov-25 14:33N 36°01' E 120°24'1414.0
2014-Nov-25 13:33N 35°58' E 120°41'10517.5
2014-Nov-25 07:32N 36°35' E 122°43'3615.8
2014-Nov-25 05:17N 37°05' E 123°08'1519.4
2014-Nov-25 04:32N 37°19' E 123°09'113 5.4
2014-Nov-24 07:24N 38°57' E 121°57'5 6.0
2014-Nov-24 06:33N 38°52' E 121°56'4 4.3
2014-Nov-24 05:34N 38°48' E 121°56'2 1.5
2014-Nov-24 04:33N 38°46' E 121°56'2 2.5
2014-Nov-24 03:33N 38°44' E 121°55'1612.8
2014-Nov-24 02:20N 38°28' E 121°50'1113.8
2014-Nov-24 01:34N 38°28' E 121°37'1914.3
2014-Nov-24 00:16N 38°29' E 121°13'13613.9
2014-Nov-23 14:26N 38°49' E 118°20'1213.4
2014-Nov-23 13:33N 38°54' E 118°07'1212.2
2014-Nov-23 12:33N 38°58' E 117°52'4 3.5
2014-Nov-23 11:28N 38°59' E 117°47'0 0.0
2014-Nov-23 10:16N 38°59' E 117°47'0 0.1
2014-Nov-23 09:22N 38°59' E 117°47'0 0.0
2014-Nov-23 08:28N 38°59' E 117°47'0 0.0
2014-Nov-23 07:16N 38°59' E 117°47'0 0.0
2014-Nov-23 05:31N 38°59' E 117°47'0 0.0
2014-Nov-23 04:31N 38°59' E 117°47'0 0.0
2014-Nov-23 03:25N 38°59' E 117°47'0 0.0
2014-Nov-23 02:31N 38°59' E 117°47'0 0.0
2014-Nov-23 01:31N 38°59' E 117°47'0 0.0
2014-Nov-23 00:31N 38°59' E 117°47'0 0.0
2014-Nov-22 23:25N 38°59' E 117°47'0 0.0
2014-Nov-22 22:31N 38°59' E 117°47'0 0.0
2014-Nov-22 21:25N 38°59' E 117°47'0 0.0
2014-Nov-22 20:31N 38°59' E 117°47'0 0.0
2014-Nov-22 19:19N 38°59' E 117°47'0 0.0
2014-Nov-22 18:31N 38°59' E 117°47'0 0.0
2014-Nov-22 17:25N 38°59' E 117°47'0 0.0
2014-Nov-22 16:31N 38°59' E 117°47'0 0.1
2014-Nov-22 15:33N 38°59' E 117°47'9 9.3
2014-Nov-22 14:33N 38°57' E 117°59'7 6.6
2014-Nov-22 13:33N 38°56' E 118°07'4 3.9
2014-Nov-22 12:33N 38°53' E 118°11'141 9.3
2014-Nov-21 21:22N 38°30' E 121°09'1213.5
2014-Nov-21 20:30N 38°23' E 121°22'2713.6
2014-Nov-21 18:29N 38°10' E 121°53'3913.4
2014-Nov-21 15:32N 37°50' E 122°35'1212.6
2014-Nov-21 14:33N 37°41' E 122°47'1413.0
2014-Nov-21 13:29N 37°31' E 122°58'  
2014-Nov-18 11:34N 22°19' E 114°06'2 0.4
2014-Nov-18 07:33N 22°20' E 114°08'0 0.0
2014-Nov-18 06:19N 22°20' E 114°08'0 0.0
2014-Nov-18 04:27N 22°20' E 114°08'0 0.0
2014-Nov-18 02:26N 22°20' E 114°08'0 0.0
2014-Nov-18 01:33N 22°20' E 114°08'0 0.0
2014-Nov-18 00:32N 22°20' E 114°08'0 0.0
2014-Nov-17 23:29N 22°20' E 114°08'0 0.0
2014-Nov-17 22:33N 22°20' E 114°08'0 0.0
2014-Nov-17 21:33N 22°20' E 114°08'0 0.0
2014-Nov-17 20:30N 22°20' E 114°08'0 0.0
2014-Nov-17 19:32N 22°20' E 114°08'0 0.0
2014-Nov-17 18:33N 22°20' E 114°08'0 0.0
2014-Nov-17 16:33N 22°20' E 114°08'0 0.0
2014-Nov-17 15:33N 22°20' E 114°08'0 0.0
2014-Nov-17 14:33N 22°20' E 114°08'0 0.0
2014-Nov-17 13:33N 22°20' E 114°08'0 0.0
2014-Nov-17 12:30N 22°20' E 114°08'0 0.0
2014-Nov-17 11:32N 22°20' E 114°08'0 0.0
2014-Nov-17 10:23N 22°20' E 114°08'0 0.4
2014-Nov-17 09:26N 22°19' E 114°07'9 7.2
2014-Nov-17 08:06N 22°11' E 114°12'15413.2
2014-Nov-16 20:30N 22°51' E 116°53'2014.2
2014-Nov-16 19:05N 23°02' E 117°11'  

Dump ship's entire track history